Time;durP1;ratioP1;P1;durP2;ratioP2;P2;SDS_P1;SDS_P2;PMS_P1;PMS_P2;Temp;Humidity;BMP_temperature;BMP_pressure;BME280_temperature;BME280_humidity;BME280_pressure;Samples;Min_cycle;Max_cycle;Signal;HPM_P1;HPM_P2
2021/04/17 00:01:34;;;;;;;6.83;4.90;;;11.00;45.90;;;;;;5073498;28;20721;-51
2021/04/17 00:04:02;;;;;;;4.73;3.83;;;11.00;46.00;;;;;;5071530;28;20705;-51
2021/04/17 00:06:28;;;;;;;5.80;5.20;;;11.00;46.10;;;;;;5073513;28;20671;-51
2021/04/17 00:08:55;;;;;;;6.73;5.53;;;11.00;46.20;;;;;;5073232;28;20665;-51
2021/04/17 00:11:22;;;;;;;6.13;5.63;;;10.90;46.20;;;;;;5073174;28;20686;-51
2021/04/17 00:13:49;;;;;;;6.77;5.00;;;10.90;46.30;;;;;;5073008;28;20690;-50
2021/04/17 00:16:16;;;;;;;4.70;3.80;;;10.90;46.20;;;;;;5073441;28;20625;-51
2021/04/17 00:18:43;;;;;;;10.53;4.27;;;10.90;46.10;;;;;;5073353;28;20700;-51
2021/04/17 00:21:10;;;;;;;5.77;5.20;;;10.90;46.30;;;;;;5071647;28;20718;-50
2021/04/17 00:23:37;;;;;;;6.30;4.90;;;10.80;46.50;;;;;;5072384;28;20735;-50
2021/04/17 00:26:04;;;;;;;5.40;4.90;;;10.80;46.50;;;;;;5074090;28;20633;-50
2021/04/17 00:28:30;;;;;;;4.57;4.17;;;10.70;46.40;;;;;;5073033;28;21066;-50
2021/04/17 00:30:58;;;;;;;6.20;4.00;;;10.70;46.50;;;;;;5073512;28;20664;-51
2021/04/17 00:33:24;;;;;;;5.70;4.63;;;10.70;46.50;;;;;;5071867;28;20683;-51
2021/04/17 00:35:51;;;;;;;5.30;4.80;;;10.60;46.60;;;;;;5073603;28;20686;-51
2021/04/17 00:38:18;;;;;;;5.43;4.57;;;10.60;46.80;;;;;;5072770;28;21026;-50
2021/04/17 00:40:45;;;;;;;6.43;4.77;;;10.60;46.90;;;;;;5059787;28;20790;-50
2021/04/17 00:43:11;;;;;;;5.43;4.90;;;10.50;46.90;;;;;;5065126;28;20656;-51
2021/04/17 00:45:38;;;;;;;5.20;4.70;;;10.50;47.10;;;;;;5091031;28;20701;-50
2021/04/17 00:48:06;;;;;;;5.10;4.60;;;10.50;47.40;;;;;;5092401;28;20628;-50
2021/04/17 00:50:33;;;;;;;5.37;4.30;;;10.40;47.70;;;;;;5093226;28;20717;-51
2021/04/17 00:53:00;;;;;;;5.33;4.20;;;10.50;48.40;;;;;;5082280;28;21028;-50
2021/04/17 00:55:27;;;;;;;4.30;3.90;;;10.40;48.60;;;;;;5072841;28;20621;-51
2021/04/17 00:57:53;;;;;;;4.73;3.77;;;10.40;48.80;;;;;;5071180;28;21192;-51
2021/04/17 01:00:21;;;;;;;4.83;4.33;;;10.40;48.90;;;;;;5072354;28;20653;-49
2021/04/17 01:02:50;;;;;;;4.60;4.20;;;10.40;48.90;;;;;;5072382;28;20694;-50
2021/04/17 01:05:18;;;;;;;5.90;4.57;;;10.40;48.90;;;;;;5071968;28;20686;-51
2021/04/17 01:07:47;;;;;;;5.40;4.90;;;10.30;48.80;;;;;;5071618;28;20633;-51
2021/04/17 01:10:16;;;;;;;5.40;4.20;;;10.30;48.80;;;;;;5071282;28;20718;-50
2021/04/17 01:12:45;;;;;;;4.47;4.07;;;10.20;48.80;;;;;;5072612;28;20691;-50
2021/04/17 01:15:14;;;;;;;4.17;3.87;;;10.10;48.90;;;;;;5072465;28;20618;-50
2021/04/17 01:17:40;;;;;;;4.57;4.13;;;10.10;49.10;;;;;;5072566;28;20625;-50
2021/04/17 01:20:10;;;;;;;4.53;4.13;;;10.00;49.10;;;;;;5072292;28;20669;-50
2021/04/17 01:22:38;;;;;;;3.90;3.50;;;9.90;50.20;;;;;;5072173;28;20637;-50
2021/04/17 01:25:07;;;;;;;5.27;4.33;;;9.90;50.50;;;;;;5070986;28;21185;-50
2021/04/17 01:27:35;;;;;;;4.97;4.10;;;9.90;50.80;;;;;;5057338;28;21263;-49
2021/04/17 01:30:04;;;;;;;4.47;4.07;;;9.90;50.90;;;;;;5069762;28;20681;-50
2021/04/17 01:32:31;;;;;;;5.60;4.40;;;9.80;50.90;;;;;;5072265;28;20679;-50
2021/04/17 01:34:58;;;;;;;4.77;4.33;;;9.80;51.00;;;;;;5070137;28;21178;-50
2021/04/17 01:37:32;;;;;;;4.93;4.43;;;9.80;51.00;;;;;;5071468;28;20624;-50
2021/04/17 01:39:59;;;;;;;5.10;4.27;;;9.70;50.90;;;;;;5072565;28;20613;-50
2021/04/17 01:42:26;;;;;;;5.80;5.30;;;9.70;51.00;;;;;;5069997;28;20632;-50
2021/04/17 01:44:53;;;;;;;5.10;4.57;;;9.60;51.00;;;;;;5071403;28;21266;-51
2021/04/17 01:47:20;;;;;;;5.00;4.03;;;9.60;52.70;;;;;;5070926;28;20992;-50
2021/04/17 01:49:49;;;;;;;4.80;4.30;;;9.70;53.60;;;;;;5071384;28;20656;-50
2021/04/17 01:52:18;;;;;;;5.27;4.77;;;9.70;53.10;;;;;;5071476;28;20660;-50
2021/04/17 01:54:46;;;;;;;4.80;4.20;;;9.70;52.30;;;;;;5070105;28;20724;-50
2021/04/17 01:57:13;;;;;;;4.43;3.97;;;9.60;52.10;;;;;;5064912;28;21028;-50
2021/04/17 01:59:40;;;;;;;4.40;4.00;;;9.60;51.90;;;;;;5051787;28;20705;-50
2021/04/17 02:02:08;;;;;;;5.67;4.80;;;9.60;51.90;;;;;;5060843;28;20740;-51
2021/04/17 02:04:35;;;;;;;4.50;4.10;;;9.50;51.90;;;;;;5071453;28;20628;-50
2021/04/17 02:07:02;;;;;;;4.97;4.17;;;9.50;52.10;;;;;;5071147;28;20693;-50
2021/04/17 02:09:29;;;;;;;5.33;4.83;;;9.50;52.10;;;;;;5070662;28;20669;-50
2021/04/17 02:11:56;;;;;;;4.37;3.97;;;9.50;52.20;;;;;;5071064;28;21225;-50
2021/04/17 02:14:22;;;;;;;5.83;4.33;;;9.40;52.30;;;;;;5069969;28;21230;-50
2021/04/17 02:16:51;;;;;;;4.40;4.00;;;9.40;52.60;;;;;;5071189;28;20628;-50
2021/04/17 02:19:21;;;;;;;4.30;3.90;;;9.40;52.50;;;;;;5070535;28;20643;-50
2021/04/17 02:21:48;;;;;;;5.33;4.83;;;9.40;52.40;;;;;;5070480;28;20648;-51
2021/04/17 02:24:15;;;;;;;4.83;4.07;;;9.40;52.70;;;;;;5071120;28;20712;-52
2021/04/17 02:26:41;;;;;;;4.10;3.70;;;9.40;52.90;;;;;;5070879;28;21197;-51
2021/04/17 02:29:08;;;;;;;4.63;3.97;;;9.30;52.90;;;;;;5069971;28;20657;-52
2021/04/17 02:31:35;;;;;;;4.87;4.37;;;9.30;52.80;;;;;;5050918;28;21242;-51
2021/04/17 02:34:02;;;;;;;5.80;4.23;;;9.30;53.00;;;;;;5066390;28;20686;-52
2021/04/17 02:36:29;;;;;;;4.27;3.90;;;9.40;53.40;;;;;;5070778;28;21030;-51
2021/04/17 02:38:56;;;;;;;5.27;4.80;;;9.30;52.90;;;;;;5070341;28;21262;-51
2021/04/17 02:41:23;;;;;;;4.57;4.17;;;9.30;53.00;;;;;;5070839;28;20653;-52
2021/04/17 02:43:49;;;;;;;4.23;3.90;;;9.30;53.00;;;;;;5076063;28;20621;-51
2021/04/17 02:46:16;;;;;;;5.40;4.33;;;9.30;53.10;;;;;;5069923;28;20628;-51
2021/04/17 02:48:43;;;;;;;4.23;3.70;;;9.20;53.40;;;;;;5070611;28;20706;-51
2021/04/17 02:51:09;;;;;;;4.33;3.93;;;9.20;53.80;;;;;;5071094;28;20713;-51
2021/04/17 02:53:37;;;;;;;4.10;3.80;;;9.20;53.90;;;;;;5070791;28;20690;-52
2021/04/17 02:56:04;;;;;;;4.57;4.17;;;9.20;53.70;;;;;;5070843;28;20687;-51
2021/04/17 02:58:31;;;;;;;5.30;4.80;;;9.20;53.60;;;;;;5070533;28;20629;-51
2021/04/17 03:00:58;;;;;;;4.73;3.60;;;9.30;53.40;;;;;;5070559;28;20657;-51
2021/04/17 03:03:24;;;;;;;4.80;4.40;;;9.30;53.30;;;;;;5066406;28;21173;-51
2021/04/17 03:05:51;;;;;;;4.77;4.13;;;9.20;53.40;;;;;;5070440;28;20637;-51
2021/04/17 03:08:18;;;;;;;3.77;3.47;;;9.20;53.50;;;;;;5070631;28;20651;-52
2021/04/17 03:10:46;;;;;;;5.87;4.20;;;9.20;53.60;;;;;;5070603;28;20664;-52
2021/04/17 03:13:12;;;;;;;5.20;4.00;;;9.20;53.80;;;;;;5070865;28;20674;-52
2021/04/17 03:15:40;;;;;;;7.67;4.77;;;9.20;53.80;;;;;;5070009;28;21031;-52
2021/04/17 03:18:06;;;;;;;6.23;5.60;;;9.20;54.00;;;;;;5070198;28;20649;-52
2021/04/17 03:20:33;;;;;;;5.40;4.60;;;9.20;54.50;;;;;;5073738;28;20651;-52
2021/04/17 03:23:00;;;;;;;5.70;4.90;;;9.30;54.50;;;;;;5074841;28;21136;-52
2021/04/17 03:25:27;;;;;;;6.57;5.07;;;9.30;54.20;;;;;;5075046;28;20628;-52
2021/04/17 03:27:54;;;;;;;5.30;4.20;;;9.30;54.20;;;;;;5073570;28;20629;-52
2021/04/17 03:30:27;;;;;;;5.20;4.70;;;9.20;54.20;;;;;;5064285;28;21295;-52
2021/04/17 03:32:54;;;;;;;4.77;4.20;;;9.30;54.30;;;;;;5073824;28;20625;-52
2021/04/17 03:35:20;;;;;;;8.90;4.10;;;9.30;54.20;;;;;;5074103;28;20617;-52
2021/04/17 03:37:47;;;;;;;6.13;4.50;;;9.30;54.20;;;;;;5073424;28;21230;-52
2021/04/17 03:40:14;;;;;;;5.13;4.73;;;9.20;54.20;;;;;;5073767;28;20629;-52
2021/04/17 03:42:41;;;;;;;4.63;3.73;;;9.20;54.40;;;;;;5074628;28;20627;-52
2021/04/17 03:45:10;;;;;;;5.40;4.00;;;9.30;54.90;;;;;;5073356;28;21208;-52
2021/04/17 03:47:37;;;;;;;4.87;3.73;;;9.30;55.10;;;;;;5073051;28;20650;-52
2021/04/17 03:50:05;;;;;;;5.93;4.40;;;9.30;55.30;;;;;;5073886;28;20657;-52
2021/04/17 03:52:31;;;;;;;4.50;4.07;;;9.30;55.20;;;;;;5074092;28;20671;-52
2021/04/17 03:54:58;;;;;;;9.70;5.07;;;9.30;55.00;;;;;;5073817;28;20636;-52
2021/04/17 03:57:25;;;;;;;5.03;4.53;;;9.30;54.90;;;;;;5073038;28;21272;-51
2021/04/17 03:59:52;;;;;;;6.00;5.43;;;9.30;54.90;;;;;;5072335;28;20625;-51
2021/04/17 04:02:19;;;;;;;8.90;4.37;;;9.30;54.70;;;;;;5075065;28;20661;-51
2021/04/17 04:04:46;;;;;;;5.47;4.30;;;9.30;54.80;;;;;;5073898;28;20636;-51
2021/04/17 04:07:13;;;;;;;5.10;4.63;;;9.30;55.00;;;;;;5085254;28;21109;-51
2021/04/17 04:09:39;;;;;;;4.13;3.70;;;9.30;55.10;;;;;;5093559;28;20729;-51
2021/04/17 04:12:07;;;;;;;4.60;4.20;;;9.30;55.10;;;;;;5082114;28;20710;-51
2021/04/17 04:14:34;;;;;;;7.10;4.40;;;9.40;55.10;;;;;;5073182;28;20629;-52
2021/04/17 04:17:01;;;;;;;4.50;4.10;;;9.40;55.20;;;;;;5072284;28;21250;-51
2021/04/17 04:19:29;;;;;;;5.40;4.90;;;9.30;55.20;;;;;;5073529;28;20690;-51
2021/04/17 04:21:56;;;;;;;5.80;5.23;;;9.30;55.30;;;;;;5072281;28;20713;-52
2021/04/17 04:24:22;;;;;;;5.30;4.80;;;9.30;55.40;;;;;;5073463;28;20674;-52
2021/04/17 04:26:49;;;;;;;4.43;4.03;;;9.30;55.40;;;;;;5073198;28;21010;-51
2021/04/17 04:29:16;;;;;;;4.90;4.50;;;9.30;55.60;;;;;;5072675;28;20688;-51
2021/04/17 04:31:42;;;;;;;6.90;4.80;;;9.30;55.70;;;;;;5054980;28;22709;-51
2021/04/17 04:34:09;;;;;;;4.80;4.40;;;9.30;55.80;;;;;;5071842;28;20660;-52
2021/04/17 04:36:37;;;;;;;5.70;5.10;;;9.30;55.70;;;;;;5072955;28;20639;-51
2021/04/17 04:39:04;;;;;;;6.50;4.40;;;9.30;55.70;;;;;;5071772;28;20629;-51
2021/04/17 04:41:30;;;;;;;4.20;3.90;;;9.40;56.00;;;;;;5072712;28;20691;-52
2021/04/17 04:43:57;;;;;;;5.23;4.60;;;9.40;56.00;;;;;;5072455;28;20616;-51
2021/04/17 04:46:24;;;;;;;4.90;4.03;;;9.40;56.00;;;;;;5072759;28;20628;-51
2021/04/17 04:48:51;;;;;;;11.20;5.57;;;9.40;56.00;;;;;;5062176;28;21217;-51
2021/04/17 04:51:17;;;;;;;5.67;5.20;;;9.40;55.70;;;;;;5056648;28;20706;-52
2021/04/17 04:53:45;;;;;;;5.57;5.13;;;9.40;55.70;;;;;;5072668;28;20694;-51
2021/04/17 04:56:12;;;;;;;5.97;4.70;;;9.40;55.70;;;;;;5072269;28;20676;-51
2021/04/17 04:58:38;;;;;;;10.10;5.77;;;9.40;55.60;;;;;;5072711;28;20686;-51
2021/04/17 05:01:05;;;;;;;6.80;6.20;;;9.40;55.60;;;;;;5072368;28;20653;-51
2021/04/17 05:03:32;;;;;;;7.13;5.73;;;9.40;55.50;;;;;;5072624;28;20679;-51
2021/04/17 05:05:59;;;;;;;6.80;6.20;;;9.40;55.50;;;;;;5065474;28;20632;-51
2021/04/17 05:08:25;;;;;;;6.23;5.53;;;9.40;55.40;;;;;;5067595;28;21184;-51
2021/04/17 05:10:53;;;;;;;7.90;6.80;;;9.40;55.40;;;;;;5072365;28;20684;-51
2021/04/17 05:13:20;;;;;;;6.90;6.30;;;9.40;55.40;;;;;;5071901;28;21178;-51
2021/04/17 05:15:46;;;;;;;6.37;5.80;;;9.40;55.40;;;;;;5071963;28;20700;-51
2021/04/17 05:18:13;;;;;;;9.20;6.57;;;9.40;55.40;;;;;;5071482;28;20714;-51
2021/04/17 05:20:40;;;;;;;7.93;7.10;;;9.40;55.20;;;;;;5071302;28;20657;-51
2021/04/17 05:23:06;;;;;;;6.87;6.17;;;9.30;55.10;;;;;;5072278;28;20671;-51
2021/04/17 05:25:33;;;;;;;7.43;6.70;;;9.30;55.00;;;;;;5071972;28;20629;-51
2021/04/17 05:28:01;;;;;;;7.10;6.40;;;9.40;55.10;;;;;;5071573;28;21029;-50
2021/04/17 05:30:28;;;;;;;6.63;5.20;;;9.40;55.20;;;;;;5071722;28;20722;-50
2021/04/17 05:32:55;;;;;;;6.97;6.27;;;9.40;55.00;;;;;;5072089;28;20675;-51
2021/04/17 05:35:21;;;;;;;5.30;4.80;;;9.40;55.00;;;;;;5071403;28;20633;-51
2021/04/17 05:37:48;;;;;;;9.43;5.90;;;9.40;55.10;;;;;;5057735;28;20625;-51
2021/04/17 05:40:15;;;;;;;6.67;6.07;;;9.50;55.10;;;;;;5052274;28;20626;-51
2021/04/17 05:42:42;;;;;;;7.50;6.77;;;9.50;55.10;;;;;;5064786;28;20686;-51
2021/04/17 05:45:11;;;;;;;6.70;6.10;;;9.50;55.10;;;;;;5071758;28;20623;-51
2021/04/17 05:47:38;;;;;;;6.07;5.47;;;9.60;55.10;;;;;;5070950;28;20633;-51
2021/04/17 05:50:06;;;;;;;6.53;5.93;;;9.70;55.00;;;;;;5071514;28;20665;-51
2021/04/17 05:52:33;;;;;;;6.83;6.10;;;9.70;54.60;;;;;;5070273;28;20661;-52
2021/04/17 05:54:59;;;;;;;6.73;6.13;;;9.70;54.50;;;;;;5071521;28;20617;-52
2021/04/17 05:57:26;;;;;;;7.90;6.07;;;9.80;54.30;;;;;;5071139;28;20682;-52
2021/04/17 05:59:53;;;;;;;5.93;5.27;;;9.80;54.10;;;;;;5071494;28;20629;-52
2021/04/17 06:02:21;;;;;;;6.47;5.53;;;9.80;53.90;;;;;;5071236;28;20653;-52
2021/04/17 06:04:48;;;;;;;10.27;5.60;;;9.80;53.80;;;;;;5069708;28;21029;-52
2021/04/17 06:07:15;;;;;;;6.07;5.60;;;9.90;53.90;;;;;;5061128;28;21436;-51
2021/04/17 06:09:41;;;;;;;5.47;4.97;;;9.90;53.90;;;;;;5071314;28;20649;-51
2021/04/17 06:12:09;;;;;;;6.13;4.90;;;10.00;52.80;;;;;;5070876;28;20660;-52
2021/04/17 06:14:35;;;;;;;6.17;5.20;;;10.00;52.50;;;;;;5071658;28;20633;-52
2021/04/17 06:17:02;;;;;;;5.07;4.57;;;10.10;52.30;;;;;;5070764;28;21027;-52
2021/04/17 06:19:30;;;;;;;7.77;4.87;;;10.10;52.10;;;;;;5070947;28;20629;-52
2021/04/17 06:21:56;;;;;;;7.77;5.40;;;10.20;51.90;;;;;;5069923;28;20645;-52
2021/04/17 06:24:24;;;;;;;6.20;4.30;;;10.20;51.40;;;;;;5071610;28;20622;-52
2021/04/17 06:26:51;;;;;;;5.60;4.60;;;10.30;51.00;;;;;;5070950;28;20637;-52
2021/04/17 06:29:17;;;;;;;6.13;4.80;;;10.40;50.90;;;;;;5070863;28;20659;-51
2021/04/17 06:31:44;;;;;;;5.17;4.70;;;10.40;50.50;;;;;;5070456;28;20665;-52
2021/04/17 06:34:11;;;;;;;8.43;4.70;;;10.40;50.40;;;;;;5070658;28;20652;-53
2021/04/17 06:36:38;;;;;;;8.37;4.87;;;10.40;50.10;;;;;;5070533;28;21195;-53
2021/04/17 06:39:06;;;;;;;5.33;3.97;;;10.40;50.10;;;;;;5070181;28;21174;-51
2021/04/17 06:41:33;;;;;;;4.93;4.20;;;10.40;50.10;;;;;;5055552;28;21197;-51
2021/04/17 06:44:01;;;;;;;4.57;3.80;;;10.40;50.20;;;;;;5052693;28;20648;-50
2021/04/17 06:46:28;;;;;;;6.20;3.90;;;10.40;50.00;;;;;;5066930;28;21474;-51
2021/04/17 06:48:55;;;;;;;4.90;4.50;;;10.50;49.60;;;;;;5070365;28;20629;-51
2021/04/17 06:51:22;;;;;;;3.70;3.40;;;10.60;49.40;;;;;;5070197;28;20673;-50
2021/04/17 06:53:49;;;;;;;7.37;5.33;;;10.60;49.20;;;;;;5071145;28;20621;-50
2021/04/17 06:56:16;;;;;;;4.87;3.97;;;10.70;48.90;;;;;;5076996;28;20663;-53
2021/04/17 06:58:43;;;;;;;4.03;3.70;;;10.80;48.30;;;;;;5077339;28;20625;-51
2021/04/17 07:01:10;;;;;;;7.57;4.37;;;11.00;48.20;;;;;;5076325;28;20653;-52
2021/04/17 07:03:36;;;;;;;5.90;3.70;;;11.20;48.20;;;;;;5077444;28;20698;-52
2021/04/17 07:06:03;;;;;;;4.93;3.20;;;11.50;46.90;;;;;;5077146;28;20745;-52
2021/04/17 07:08:30;;;;;;;5.60;4.30;;;11.70;46.10;;;;;;5076882;28;20639;-52
2021/04/17 07:10:58;;;;;;;5.10;3.97;;;11.90;45.90;;;;;;5077071;28;20669;-52
2021/04/17 07:13:26;;;;;;;4.37;3.80;;;12.00;45.20;;;;;;5087224;28;20627;-52
2021/04/17 07:15:54;;;;;;;6.90;3.60;;;12.10;45.80;;;;;;5077217;28;20627;-52
2021/04/17 07:18:31;;;;;;;3.47;2.93;;;12.30;45.00;;;;;;5068203;28;20984;-52
2021/04/17 07:20:59;;;;;;;4.97;4.00;;;12.50;44.50;;;;;;5057981;28;21021;-52
2021/04/17 07:23:39;;;;;;;3.80;3.27;;;12.60;43.90;;;;;;5057044;28;21256;-52
2021/04/17 07:26:10;;;;;;;4.20;3.40;;;12.70;43.60;;;;;;5074486;28;20698;-52
2021/04/17 07:28:38;;;;;;;4.13;3.40;;;12.70;42.90;;;;;;5073442;28;20714;-52
2021/04/17 07:31:05;;;;;;;3.80;3.50;;;12.80;42.50;;;;;;5077275;28;20703;-52
2021/04/17 07:33:32;;;;;;;6.13;2.97;;;12.80;42.80;;;;;;5077016;28;20678;-52
2021/04/17 07:36:00;;;;;;;4.73;3.10;;;12.90;42.80;;;;;;5077131;28;21235;-52
2021/04/17 07:38:28;;;;;;;4.37;3.83;;;13.10;42.60;;;;;;5076535;28;20633;-52
2021/04/17 07:41:03;;;;;;;3.80;3.37;;;13.20;41.90;;;;;;5076933;28;20710;-52
2021/04/17 07:43:50;;;;;;;3.50;3.20;;;13.40;41.30;;;;;;5076740;28;20629;-52
2021/04/17 07:46:18;;;;;;;4.73;4.00;;;13.50;40.90;;;;;;5070297;28;21036;-52
2021/04/17 07:48:45;;;;;;;3.60;3.30;;;13.50;40.90;;;;;;5076668;28;20628;-52
2021/04/17 07:51:12;;;;;;;5.27;3.40;;;13.50;40.60;;;;;;5076434;28;20703;-51
2021/04/17 07:53:39;;;;;;;3.40;3.10;;;13.60;40.90;;;;;;5076117;28;20617;-51
2021/04/17 07:56:34;;;;;;;5.90;4.80;;;13.60;40.80;;;;;;5076543;28;20637;-52
2021/04/17 07:59:04;;;;;;;4.73;3.63;;;13.70;40.70;;;;;;5076309;28;20625;-52
2021/04/17 08:01:32;;;;;;;6.93;3.73;;;13.70;40.20;;;;;;5076112;28;20653;-52
2021/04/17 08:03:59;;;;;;;4.17;3.27;;;13.70;40.30;;;;;;5076719;28;21174;-52
2021/04/17 08:06:27;;;;;;;4.00;3.27;;;13.90;40.50;;;;;;5073273;28;20653;-51
2021/04/17 08:08:55;;;;;;;4.23;3.27;;;14.10;40.00;;;;;;5072705;28;20613;-51
2021/04/17 08:11:23;;;;;;;5.30;3.47;;;14.30;39.20;;;;;;5072367;28;20652;-52
2021/04/17 08:13:50;;;;;;;4.23;3.20;;;14.40;38.40;;;;;;5073512;28;20629;-52
2021/04/17 08:16:18;;;;;;;2.73;2.53;;;14.40;38.40;;;;;;5072495;28;20632;-51
2021/04/17 08:18:46;;;;;;;3.87;2.90;;;14.40;38.10;;;;;;5066193;28;20679;-52
2021/04/17 08:21:14;;;;;;;3.80;3.20;;;14.50;37.70;;;;;;5072952;28;20679;-52
2021/04/17 08:23:43;;;;;;;3.83;2.80;;;14.40;37.50;;;;;;5073525;28;21035;-52
2021/04/17 08:26:09;;;;;;;5.33;3.60;;;14.50;37.50;;;;;;5072481;28;20629;-52
2021/04/17 08:28:39;;;;;;;4.60;2.80;;;14.50;37.40;;;;;;5072258;28;20653;-52
2021/04/17 08:31:27;;;;;;;3.47;3.03;;;14.50;37.70;;;;;;5072926;28;20684;-52
2021/04/17 08:34:11;;;;;;;5.03;3.53;;;14.50;37.40;;;;;;5072692;28;20656;-52
2021/04/17 08:36:39;;;;;;;3.97;3.13;;;14.40;37.00;;;;;;5071467;28;20625;-51
2021/04/17 08:39:06;;;;;;;3.03;2.63;;;14.40;37.20;;;;;;5072261;28;20629;-50
2021/04/17 08:41:39;;;;;;;4.60;2.70;;;14.50;37.60;;;;;;5072790;28;20706;-50
2021/04/17 08:44:26;;;;;;;5.17;2.87;;;14.70;37.40;;;;;;5071003;28;20697;-51
2021/04/17 08:46:53;;;;;;;6.43;3.57;;;15.00;36.60;;;;;;5069717;28;20672;-51
2021/04/17 08:49:21;;;;;;;6.97;3.20;;;15.20;36.10;;;;;;5072676;28;20633;-52
2021/04/17 08:51:48;;;;;;;4.40;3.00;;;15.40;35.90;;;;;;5072199;28;20833;-50
2021/04/17 08:54:19;;;;;;;4.73;3.00;;;15.60;34.90;;;;;;5071574;28;20617;-51
2021/04/17 08:57:00;;;;;;;3.23;2.60;;;15.60;34.30;;;;;;5036179;28;20639;-51
2021/04/17 08:59:31;;;;;;;2.70;2.50;;;15.60;33.90;;;;;;5071928;28;20625;-51
2021/04/17 09:02:02;;;;;;;2.60;2.40;;;15.60;33.70;;;;;;5072255;28;20947;-51
2021/04/17 09:04:30;;;;;;;3.87;3.10;;;15.50;33.40;;;;;;5071393;28;20641;-51
2021/04/17 09:06:58;;;;;;;3.23;2.37;;;15.40;33.10;;;;;;5072064;28;20625;-50
2021/04/17 09:09:26;;;;;;;4.13;3.10;;;15.40;33.40;;;;;;5071597;28;20621;-51
2021/04/17 09:11:53;;;;;;;4.87;2.57;;;15.40;33.60;;;;;;5070869;28;20723;-50
2021/04/17 09:14:51;;;;;;;6.50;3.20;;;15.40;33.70;;;;;;5068009;28;21050;-51
2021/04/17 09:17:42;;;;;;;4.30;3.00;;;15.40;33.60;;;;;;5062608;28;20783;-51
2021/04/17 09:20:10;;;;;;;3.67;2.90;;;15.40;33.40;;;;;;5071003;28;20954;-51
2021/04/17 09:22:46;;;;;;;4.63;3.60;;;15.40;33.20;;;;;;5071592;28;20679;-51
2021/04/17 09:25:14;;;;;;;5.53;3.13;;;15.40;33.20;;;;;;5071871;28;20633;-51
2021/04/17 09:27:42;;;;;;;3.73;2.60;;;15.40;32.50;;;;;;5070270;28;20728;-52
2021/04/17 09:30:10;;;;;;;3.00;2.70;;;15.50;32.20;;;;;;5071302;28;21186;-51
2021/04/17 09:32:38;;;;;;;3.60;2.73;;;15.50;32.30;;;;;;5063128;28;21170;-52
2021/04/17 09:35:13;;;;;;;6.97;3.70;;;15.60;32.40;;;;;;5083596;28;20637;-52
2021/04/17 09:37:41;;;;;;;2.90;2.70;;;15.60;32.30;;;;;;5071434;28;20682;-52
2021/04/17 09:40:08;;;;;;;5.83;3.67;;;15.70;32.00;;;;;;5071642;28;20640;-52
2021/04/17 09:42:36;;;;;;;3.20;2.90;;;15.70;31.60;;;;;;5071354;28;20682;-52
2021/04/17 09:45:05;;;;;;;4.70;3.20;;;15.70;31.80;;;;;;5072980;28;20704;-52
2021/04/17 09:47:31;;;;;;;2.70;2.50;;;15.70;31.90;;;;;;5071051;28;20678;-52
2021/04/17 09:49:59;;;;;;;6.90;3.50;;;15.70;31.40;;;;;;5071254;28;20629;-52
2021/04/17 09:52:26;;;;;;;3.10;2.77;;;15.70;31.20;;;;;;5054131;28;21283;-52
2021/04/17 09:54:57;;;;;;;3.20;2.70;;;15.70;31.00;;;;;;5070714;28;20613;-52
2021/04/17 09:57:24;;;;;;;3.90;3.33;;;15.80;31.30;;;;;;5071100;28;20962;-50
2021/04/17 09:59:51;;;;;;;4.13;3.40;;;16.00;31.80;;;;;;5069842;28;20625;-50
2021/04/17 10:02:19;;;;;;;3.63;3.33;;;16.20;31.40;;;;;;5070094;28;20653;-50
2021/04/17 10:04:51;;;;;;;4.30;3.30;;;16.40;31.20;;;;;;5074867;28;20633;-50
2021/04/17 10:07:18;;;;;;;5.10;3.53;;;16.60;30.90;;;;;;5071625;28;20625;-51
2021/04/17 10:10:01;;;;;;;4.17;3.77;;;17.00;30.70;;;;;;5070809;28;20750;-51
2021/04/17 10:12:28;;;;;;;4.03;3.63;;;17.40;30.50;;;;;;5070118;28;20668;-51
2021/04/17 10:15:16;;;;;;;4.13;3.83;;;17.60;30.30;;;;;;5053040;28;20628;-51
2021/04/17 10:17:43;;;;;;;3.67;3.20;;;17.70;30.00;;;;;;5067707;28;20691;-51
2021/04/17 10:20:11;;;;;;;3.10;2.90;;;17.90;30.20;;;;;;5070881;28;20725;-51
2021/04/17 10:22:39;;;;;;;4.00;2.77;;;18.20;30.00;;;;;;5070305;28;20663;-51
2021/04/17 10:25:09;;;;;;;3.90;3.60;;;18.50;29.30;;;;;;5070057;28;20622;-52
2021/04/17 10:27:37;;;;;;;4.33;3.80;;;18.80;29.10;;;;;;5070910;28;20753;-51
2021/04/17 10:30:18;;;;;;;4.67;2.90;;;19.10;29.10;;;;;;5068901;28;20671;-51
2021/04/17 10:32:47;;;;;;;4.77;3.77;;;19.70;28.90;;;;;;5053368;28;20617;-51
2021/04/17 10:35:16;;;;;;;7.30;3.20;;;20.20;28.20;;;;;;5057530;28;21262;-52
2021/04/17 10:37:44;;;;;;;3.60;3.27;;;20.50;27.80;;;;;;5070227;28;20641;-51
2021/04/17 10:40:13;;;;;;;3.90;3.17;;;20.50;27.60;;;;;;5069967;28;21174;-52
2021/04/17 10:42:48;;;;;;;4.10;3.23;;;20.50;27.50;;;;;;5070071;28;20625;-52
2021/04/17 10:45:15;;;;;;;3.60;3.30;;;20.60;27.40;;;;;;5069450;28;20624;-52
2021/04/17 10:47:42;;;;;;;4.50;2.97;;;20.70;26.80;;;;;;5035852;28;20671;-51
2021/04/17 10:50:17;;;;;;;6.20;4.50;;;20.70;26.90;;;;;;5070404;28;20621;-52
2021/04/17 10:52:56;;;;;;;3.90;3.13;;;20.50;26.70;;;;;;5070212;28;21165;-52
2021/04/17 10:55:33;;;;;;;3.73;3.33;;;20.30;26.90;;;;;;5069157;28;20649;-52
2021/04/17 10:58:00;;;;;;;4.30;3.20;;;20.20;27.20;;;;;;5070023;28;21234;-52
2021/04/17 11:00:30;;;;;;;3.90;3.20;;;19.90;27.00;;;;;;5070727;28;20714;-52
2021/04/17 11:02:57;;;;;;;4.83;3.97;;;19.60;26.80;;;;;;5069814;28;21255;-53
2021/04/17 11:05:28;;;;;;;3.40;3.10;;;19.30;27.10;;;;;;5070738;28;21044;-52
2021/04/17 11:07:58;;;;;;;4.00;3.40;;;19.00;27.30;;;;;;5069609;28;20987;-51
2021/04/17 11:10:29;;;;;;;5.67;3.40;;;18.90;27.60;;;;;;5052035;28;20672;-52
2021/04/17 11:12:56;;;;;;;4.43;4.03;;;18.80;27.60;;;;;;5064269;28;21255;-52
2021/04/17 11:15:24;;;;;;;4.40;3.43;;;18.60;27.60;;;;;;5051674;28;20671;-52
2021/04/17 11:18:10;;;;;;;3.40;3.10;;;18.60;28.10;;;;;;5069832;28;21219;-52
2021/04/17 11:20:44;;;;;;;6.27;3.83;;;18.80;27.80;;;;;;5068951;28;20657;-52
2021/04/17 11:23:44;;;;;;;5.40;2.70;;;18.80;27.90;;;;;;5051936;28;20655;-51
2021/04/17 11:26:19;;;;;;;2.40;2.20;;;18.70;28.10;;;;;;5068972;28;20989;-52
2021/04/17 11:28:47;;;;;;;5.80;3.17;;;18.80;27.80;;;;;;5071223;28;21230;-52
2021/04/17 11:31:18;;;;;;;3.37;2.83;;;18.90;27.70;;;;;;5069376;28;20687;-52
2021/04/17 11:33:46;;;;;;;6.30;3.10;;;19.10;27.80;;;;;;5067864;28;20686;-51
2021/04/17 11:36:13;;;;;;;3.70;3.40;;;19.20;27.90;;;;;;5070571;28;20683;-52
2021/04/17 11:38:39;;;;;;;4.17;3.47;;;19.20;28.20;;;;;;5069046;28;20657;-52
2021/04/17 11:41:06;;;;;;;4.90;3.70;;;19.10;27.90;;;;;;5071910;28;20649;-52
2021/04/17 11:43:34;;;;;;;8.90;3.23;;;18.90;28.10;;;;;;5083768;28;20633;-52
2021/04/17 11:46:01;;;;;;;5.40;3.90;;;18.70;28.20;;;;;;5068657;28;20686;-52
2021/04/17 11:48:27;;;;;;;4.93;3.70;;;18.50;28.50;;;;;;5073394;28;20633;-52
2021/04/17 11:50:54;;;;;;;4.10;3.37;;;18.50;28.80;;;;;;5078147;28;20693;-52
2021/04/17 11:53:21;;;;;;;3.57;3.00;;;18.50;28.70;;;;;;5073032;28;20966;-52
2021/04/17 11:55:48;;;;;;;3.30;2.53;;;18.50;28.80;;;;;;5068847;28;20625;-52
2021/04/17 11:58:15;;;;;;;3.50;3.10;;;18.50;28.90;;;;;;5074323;28;20731;-53
2021/04/17 12:00:43;;;;;;;5.83;2.93;;;18.50;28.90;;;;;;5074126;28;20714;-52
2021/04/17 12:03:15;;;;;;;4.10;3.17;;;18.40;28.70;;;;;;5084575;28;21043;-52
2021/04/17 12:05:41;;;;;;;3.53;3.23;;;18.30;28.80;;;;;;5059262;28;21244;-53
2021/04/17 12:08:09;;;;;;;8.50;2.80;;;18.30;28.70;;;;;;5054206;28;20638;-52
2021/04/17 12:10:35;;;;;;;4.40;3.27;;;18.40;28.50;;;;;;5075333;28;20717;-53
2021/04/17 12:13:02;;;;;;;7.10;2.93;;;18.50;28.50;;;;;;5074681;28;20633;-53
2021/04/17 12:15:29;;;;;;;4.03;3.10;;;18.80;28.60;;;;;;5074436;28;20682;-53
2021/04/17 12:17:56;;;;;;;3.53;3.20;;;19.20;28.60;;;;;;5073827;28;20621;-52
2021/04/17 12:20:24;;;;;;;3.30;3.00;;;19.30;28.20;;;;;;5076957;28;21226;-52
2021/04/17 12:22:51;;;;;;;5.10;3.10;;;19.20;28.00;;;;;;5072764;28;20617;-52
2021/04/17 12:25:18;;;;;;;5.50;3.07;;;19.30;28.20;;;;;;5073367;28;21254;-52
2021/04/17 12:27:45;;;;;;;4.60;2.80;;;19.40;28.20;;;;;;5073314;28;20674;-52
2021/04/17 12:30:12;;;;;;;4.97;3.67;;;19.60;27.60;;;;;;5075983;28;20976;-53
2021/04/17 12:32:39;;;;;;;5.10;2.63;;;19.50;27.40;;;;;;5091076;28;20653;-52
2021/04/17 12:35:09;;;;;;;5.00;3.03;;;19.60;27.70;;;;;;5073642;28;21247;-53
2021/04/17 12:37:37;;;;;;;4.60;2.97;;;19.60;27.50;;;;;;5071519;28;20617;-52
2021/04/17 12:40:07;;;;;;;2.47;2.27;;;19.70;27.30;;;;;;5071510;28;20648;-52
2021/04/17 12:42:33;;;;;;;2.00;1.80;;;19.80;26.90;;;;;;5071429;28;20621;-53
2021/04/17 12:45:00;;;;;;;4.67;2.30;;;19.90;26.70;;;;;;5072609;28;20687;-53
2021/04/17 12:47:27;;;;;;;2.10;1.73;;;20.10;26.60;;;;;;5071816;28;20658;-53
2021/04/17 12:49:54;;;;;;;3.00;2.17;;;20.30;26.50;;;;;;5077665;28;20628;-52
2021/04/17 12:52:23;;;;;;;2.30;2.10;;;20.40;26.20;;;;;;5071764;28;21009;-53
2021/04/17 12:54:50;;;;;;;3.40;2.63;;;20.30;26.30;;;;;;5054487;28;20694;-53
2021/04/17 12:57:16;;;;;;;6.37;2.40;;;20.20;26.70;;;;;;5071867;28;20655;-53